sensor_id;sensor_type;location;lat;lon;timestamp;temperature;humidity
26378;DHT22;14078;50.974;6.786;2022-10-26T00:01:14;12.00;99.90
26378;DHT22;14078;50.974;6.786;2022-10-26T00:03:43;12.00;99.90
26378;DHT22;14078;50.974;6.786;2022-10-26T00:06:10;12.00;99.90
26378;DHT22;14078;50.974;6.786;2022-10-26T00:08:37;12.00;99.90
26378;DHT22;14078;50.974;6.786;2022-10-26T00:11:04;12.00;99.90
26378;DHT22;14078;50.974;6.786;2022-10-26T00:13:31;12.00;99.90
26378;DHT22;14078;50.974;6.786;2022-10-26T00:15:58;12.00;99.90
26378;DHT22;14078;50.974;6.786;2022-10-26T00:18:24;11.90;99.90
26378;DHT22;14078;50.974;6.786;2022-10-26T00:20:52;12.10;99.90
26378;DHT22;14078;50.974;6.786;2022-10-26T00:23:19;12.10;99.90
26378;DHT22;14078;50.974;6.786;2022-10-26T00:25:52;12.10;99.90
26378;DHT22;14078;50.974;6.786;2022-10-26T00:28:18;12.10;99.90
26378;DHT22;14078;50.974;6.786;2022-10-26T00:30:45;12.10;99.90
26378;DHT22;14078;50.974;6.786;2022-10-26T00:33:12;12.10;99.90
26378;DHT22;14078;50.974;6.786;2022-10-26T00:35:38;12.20;99.90
26378;DHT22;14078;50.974;6.786;2022-10-26T00:38:06;12.10;99.90
26378;DHT22;14078;50.974;6.786;2022-10-26T00:40:33;12.10;99.90
26378;DHT22;14078;50.974;6.786;2022-10-26T00:42:59;12.00;99.90
26378;DHT22;14078;50.974;6.786;2022-10-26T00:45:27;12.00;99.90
26378;DHT22;14078;50.974;6.786;2022-10-26T00:47:55;12.00;99.90
26378;DHT22;14078;50.974;6.786;2022-10-26T00:50:23;12.00;99.90
26378;DHT22;14078;50.974;6.786;2022-10-26T00:52:51;12.00;99.90
26378;DHT22;14078;50.974;6.786;2022-10-26T00:55:20;12.10;99.90
26378;DHT22;14078;50.974;6.786;2022-10-26T00:57:48;12.10;99.90
26378;DHT22;14078;50.974;6.786;2022-10-26T01:00:19;12.10;99.90
26378;DHT22;14078;50.974;6.786;2022-10-26T01:02:46;12.10;99.90
26378;DHT22;14078;50.974;6.786;2022-10-26T01:05:14;12.10;99.90
26378;DHT22;14078;50.974;6.786;2022-10-26T01:07:41;12.10;99.90
26378;DHT22;14078;50.974;6.786;2022-10-26T01:10:08;12.10;99.90
26378;DHT22;14078;50.974;6.786;2022-10-26T01:12:36;12.00;99.90
26378;DHT22;14078;50.974;6.786;2022-10-26T01:15:03;12.10;99.90
26378;DHT22;14078;50.974;6.786;2022-10-26T01:17:35;12.10;99.90
26378;DHT22;14078;50.974;6.786;2022-10-26T01:20:14;12.10;99.90
26378;DHT22;14078;50.974;6.786;2022-10-26T01:22:43;12.10;99.90
26378;DHT22;14078;50.974;6.786;2022-10-26T01:25:15;12.10;99.90
26378;DHT22;14078;50.974;6.786;2022-10-26T01:27:44;12.20;99.90
26378;DHT22;14078;50.974;6.786;2022-10-26T01:30:20;12.20;99.90
26378;DHT22;14078;50.974;6.786;2022-10-26T01:32:56;12.20;99.90
26378;DHT22;14078;50.974;6.786;2022-10-26T01:35:27;12.20;99.90
26378;DHT22;14078;50.974;6.786;2022-10-26T01:37:56;12.20;99.90
26378;DHT22;14078;50.974;6.786;2022-10-26T01:40:24;12.20;99.90
26378;DHT22;14078;50.974;6.786;2022-10-26T01:42:52;12.30;99.90
26378;DHT22;14078;50.974;6.786;2022-10-26T01:45:21;12.30;99.90
26378;DHT22;14078;50.974;6.786;2022-10-26T01:47:49;12.30;99.90
26378;DHT22;14078;50.974;6.786;2022-10-26T01:50:17;12.30;99.90
26378;DHT22;14078;50.974;6.786;2022-10-26T01:52:47;12.40;99.90
26378;DHT22;14078;50.974;6.786;2022-10-26T01:55:38;12.40;99.90
26378;DHT22;14078;50.974;6.786;2022-10-26T01:58:07;12.40;99.90
26378;DHT22;14078;50.974;6.786;2022-10-26T02:00:37;12.40;99.90
26378;DHT22;14078;50.974;6.786;2022-10-26T02:03:09;12.40;99.90
26378;DHT22;14078;50.974;6.786;2022-10-26T02:05:49;12.40;99.90
26378;DHT22;14078;50.974;6.786;2022-10-26T02:08:32;12.30;99.90
26378;DHT22;14078;50.974;6.786;2022-10-26T02:11:08;12.40;99.90
26378;DHT22;14078;50.974;6.786;2022-10-26T02:13:39;12.40;99.90
26378;DHT22;14078;50.974;6.786;2022-10-26T02:16:09;12.40;99.90
26378;DHT22;14078;50.974;6.786;2022-10-26T02:18:40;12.50;99.90
26378;DHT22;14078;50.974;6.786;2022-10-26T02:21:08;12.40;99.90
26378;DHT22;14078;50.974;6.786;2022-10-26T02:23:37;12.50;99.90
26378;DHT22;14078;50.974;6.786;2022-10-26T02:26:06;12.40;99.90
26378;DHT22;14078;50.974;6.786;2022-10-26T02:28:35;12.40;99.90
26378;DHT22;14078;50.974;6.786;2022-10-26T02:31:03;12.40;99.90
26378;DHT22;14078;50.974;6.786;2022-10-26T02:33:32;12.40;99.90
26378;DHT22;14078;50.974;6.786;2022-10-26T02:36:00;12.50;99.90
26378;DHT22;14078;50.974;6.786;2022-10-26T02:38:28;12.50;99.90
26378;DHT22;14078;50.974;6.786;2022-10-26T02:40:55;12.50;99.90
26378;DHT22;14078;50.974;6.786;2022-10-26T02:43:23;12.60;99.90
26378;DHT22;14078;50.974;6.786;2022-10-26T02:45:50;12.60;99.90
26378;DHT22;14078;50.974;6.786;2022-10-26T02:48:18;12.60;99.90
26378;DHT22;14078;50.974;6.786;2022-10-26T02:50:49;12.60;99.90
26378;DHT22;14078;50.974;6.786;2022-10-26T02:53:17;12.60;99.90
26378;DHT22;14078;50.974;6.786;2022-10-26T02:55:48;12.60;99.90
26378;DHT22;14078;50.974;6.786;2022-10-26T02:58:17;12.60;99.90
26378;DHT22;14078;50.974;6.786;2022-10-26T03:00:45;12.60;99.90
26378;DHT22;14078;50.974;6.786;2022-10-26T03:03:11;12.50;99.90
26378;DHT22;14078;50.974;6.786;2022-10-26T03:05:40;12.60;99.90
26378;DHT22;14078;50.974;6.786;2022-10-26T03:08:08;12.60;99.90
26378;DHT22;14078;50.974;6.786;2022-10-26T03:10:35;12.60;99.90
26378;DHT22;14078;50.974;6.786;2022-10-26T03:13:02;12.60;99.90
26378;DHT22;14078;50.974;6.786;2022-10-26T03:15:29;12.60;99.90
26378;DHT22;14078;50.974;6.786;2022-10-26T03:17:55;12.60;99.90
26378;DHT22;14078;50.974;6.786;2022-10-26T03:20:22;12.70;99.90
26378;DHT22;14078;50.974;6.786;2022-10-26T03:22:48;12.70;99.90
26378;DHT22;14078;50.974;6.786;2022-10-26T03:25:16;12.70;99.90
26378;DHT22;14078;50.974;6.786;2022-10-26T03:27:43;12.70;99.90
26378;DHT22;14078;50.974;6.786;2022-10-26T03:30:09;12.70;99.90
26378;DHT22;14078;50.974;6.786;2022-10-26T03:32:36;12.80;99.90
26378;DHT22;14078;50.974;6.786;2022-10-26T03:35:03;12.80;99.90
26378;DHT22;14078;50.974;6.786;2022-10-26T03:37:30;12.80;99.90
26378;DHT22;14078;50.974;6.786;2022-10-26T03:39:56;12.90;99.90
26378;DHT22;14078;50.974;6.786;2022-10-26T03:42:24;12.90;99.90
26378;DHT22;14078;50.974;6.786;2022-10-26T03:44:52;12.90;99.90
26378;DHT22;14078;50.974;6.786;2022-10-26T03:47:18;12.90;99.90
26378;DHT22;14078;50.974;6.786;2022-10-26T03:49:45;12.80;99.90
26378;DHT22;14078;50.974;6.786;2022-10-26T03:52:11;12.90;99.90
26378;DHT22;14078;50.974;6.786;2022-10-26T03:54:38;12.90;99.90
26378;DHT22;14078;50.974;6.786;2022-10-26T03:57:04;13.00;99.90
26378;DHT22;14078;50.974;6.786;2022-10-26T03:59:32;13.00;99.90
26378;DHT22;14078;50.974;6.786;2022-10-26T04:01:59;13.00;99.90
26378;DHT22;14078;50.974;6.786;2022-10-26T04:04:25;13.00;99.90
26378;DHT22;14078;50.974;6.786;2022-10-26T04:06:52;13.00;99.90
26378;DHT22;14078;50.974;6.786;2022-10-26T04:09:18;13.00;99.90
26378;DHT22;14078;50.974;6.786;2022-10-26T04:11:45;13.00;99.90
26378;DHT22;14078;50.974;6.786;2022-10-26T04:14:11;13.00;99.90
26378;DHT22;14078;50.974;6.786;2022-10-26T04:16:39;13.00;99.90
26378;DHT22;14078;50.974;6.786;2022-10-26T04:19:06;13.00;99.90
26378;DHT22;14078;50.974;6.786;2022-10-26T04:21:32;13.00;99.90
26378;DHT22;14078;50.974;6.786;2022-10-26T04:23:59;13.00;99.90
26378;DHT22;14078;50.974;6.786;2022-10-26T04:26:26;13.10;99.90
26378;DHT22;14078;50.974;6.786;2022-10-26T04:28:53;13.10;99.90
26378;DHT22;14078;50.974;6.786;2022-10-26T04:31:19;13.10;99.90
26378;DHT22;14078;50.974;6.786;2022-10-26T04:33:47;13.10;99.90
26378;DHT22;14078;50.974;6.786;2022-10-26T04:36:13;13.10;99.90
26378;DHT22;14078;50.974;6.786;2022-10-26T04:38:40;13.10;99.90
26378;DHT22;14078;50.974;6.786;2022-10-26T04:41:06;13.10;99.90
26378;DHT22;14078;50.974;6.786;2022-10-26T04:43:33;13.10;99.90
26378;DHT22;14078;50.974;6.786;2022-10-26T04:45:59;13.10;99.90
26378;DHT22;14078;50.974;6.786;2022-10-26T04:48:26;13.10;99.90
26378;DHT22;14078;50.974;6.786;2022-10-26T04:50:56;13.10;99.90
26378;DHT22;14078;50.974;6.786;2022-10-26T04:53:23;13.20;99.90
26378;DHT22;14078;50.974;6.786;2022-10-26T04:55:54;13.30;99.90
26378;DHT22;14078;50.974;6.786;2022-10-26T04:58:21;13.20;99.90
26378;DHT22;14078;50.974;6.786;2022-10-26T05:00:47;13.20;99.90
26378;DHT22;14078;50.974;6.786;2022-10-26T05:03:14;13.20;99.90
26378;DHT22;14078;50.974;6.786;2022-10-26T05:05:40;13.30;99.90
26378;DHT22;14078;50.974;6.786;2022-10-26T05:08:08;13.30;99.90
26378;DHT22;14078;50.974;6.786;2022-10-26T05:10:35;13.20;99.90
26378;DHT22;14078;50.974;6.786;2022-10-26T05:13:01;13.20;99.90
26378;DHT22;14078;50.974;6.786;2022-10-26T05:15:28;13.20;99.90
26378;DHT22;14078;50.974;6.786;2022-10-26T05:17:55;13.30;99.90
26378;DHT22;14078;50.974;6.786;2022-10-26T05:20:21;13.40;99.90
26378;DHT22;14078;50.974;6.786;2022-10-26T05:22:53;13.40;99.90
26378;DHT22;14078;50.974;6.786;2022-10-26T05:25:21;13.40;99.90
26378;DHT22;14078;50.974;6.786;2022-10-26T05:27:48;13.40;99.90
26378;DHT22;14078;50.974;6.786;2022-10-26T05:30:14;13.40;99.90
26378;DHT22;14078;50.974;6.786;2022-10-26T05:32:41;13.50;99.90
26378;DHT22;14078;50.974;6.786;2022-10-26T05:35:07;13.50;99.90
26378;DHT22;14078;50.974;6.786;2022-10-26T05:37:34;13.50;99.90
26378;DHT22;14078;50.974;6.786;2022-10-26T05:40:00;13.60;99.90
26378;DHT22;14078;50.974;6.786;2022-10-26T05:42:28;13.70;99.90
26378;DHT22;14078;50.974;6.786;2022-10-26T05:44:55;13.70;99.90
26378;DHT22;14078;50.974;6.786;2022-10-26T05:47:21;13.60;99.90
26378;DHT22;14078;50.974;6.786;2022-10-26T05:49:48;13.70;99.90
26378;DHT22;14078;50.974;6.786;2022-10-26T05:52:14;13.70;99.90
26378;DHT22;14078;50.974;6.786;2022-10-26T05:54:41;13.60;99.90
26378;DHT22;14078;50.974;6.786;2022-10-26T05:57:09;13.70;99.90
26378;DHT22;14078;50.974;6.786;2022-10-26T05:59:38;13.70;99.90
26378;DHT22;14078;50.974;6.786;2022-10-26T06:02:07;13.70;99.90
26378;DHT22;14078;50.974;6.786;2022-10-26T06:04:36;13.70;99.90
26378;DHT22;14078;50.974;6.786;2022-10-26T06:07:03;13.70;99.90
26378;DHT22;14078;50.974;6.786;2022-10-26T06:09:34;13.80;99.90
26378;DHT22;14078;50.974;6.786;2022-10-26T06:12:00;13.80;99.90
26378;DHT22;14078;50.974;6.786;2022-10-26T06:14:27;13.90;99.90
26378;DHT22;14078;50.974;6.786;2022-10-26T06:17:04;13.90;99.90
26378;DHT22;14078;50.974;6.786;2022-10-26T06:19:37;13.90;99.90
26378;DHT22;14078;50.974;6.786;2022-10-26T06:22:09;13.90;99.90
26378;DHT22;14078;50.974;6.786;2022-10-26T06:24:43;13.90;99.90
26378;DHT22;14078;50.974;6.786;2022-10-26T06:27:15;14.00;99.90
26378;DHT22;14078;50.974;6.786;2022-10-26T06:29:43;13.90;99.90
26378;DHT22;14078;50.974;6.786;2022-10-26T06:32:15;13.90;99.90
26378;DHT22;14078;50.974;6.786;2022-10-26T06:34:43;14.00;99.90
26378;DHT22;14078;50.974;6.786;2022-10-26T06:37:11;14.00;99.90
26378;DHT22;14078;50.974;6.786;2022-10-26T06:39:39;13.90;99.90
26378;DHT22;14078;50.974;6.786;2022-10-26T06:42:08;13.90;99.90
26378;DHT22;14078;50.974;6.786;2022-10-26T06:44:35;13.90;99.90
26378;DHT22;14078;50.974;6.786;2022-10-26T06:47:02;13.90;99.90
26378;DHT22;14078;50.974;6.786;2022-10-26T06:49:33;13.90;99.90
26378;DHT22;14078;50.974;6.786;2022-10-26T06:52:02;13.90;99.90
26378;DHT22;14078;50.974;6.786;2022-10-26T06:54:31;13.90;99.90
26378;DHT22;14078;50.974;6.786;2022-10-26T06:57:07;13.80;99.90
26378;DHT22;14078;50.974;6.786;2022-10-26T06:59:35;13.80;99.90
26378;DHT22;14078;50.974;6.786;2022-10-26T07:02:02;13.80;99.90
26378;DHT22;14078;50.974;6.786;2022-10-26T07:04:29;13.80;99.90
26378;DHT22;14078;50.974;6.786;2022-10-26T07:06:57;13.80;99.90
26378;DHT22;14078;50.974;6.786;2022-10-26T07:09:23;13.80;99.90
26378;DHT22;14078;50.974;6.786;2022-10-26T07:11:50;13.80;99.90
26378;DHT22;14078;50.974;6.786;2022-10-26T07:14:16;13.80;99.90
26378;DHT22;14078;50.974;6.786;2022-10-26T07:16:43;13.80;99.90
26378;DHT22;14078;50.974;6.786;2022-10-26T07:19:09;13.90;99.90
26378;DHT22;14078;50.974;6.786;2022-10-26T07:21:36;13.90;99.90
26378;DHT22;14078;50.974;6.786;2022-10-26T07:24:04;14.00;99.90
26378;DHT22;14078;50.974;6.786;2022-10-26T07:26:30;14.00;99.90
26378;DHT22;14078;50.974;6.786;2022-10-26T07:28:57;14.00;99.90
26378;DHT22;14078;50.974;6.786;2022-10-26T07:31:23;14.00;99.90
26378;DHT22;14078;50.974;6.786;2022-10-26T07:33:51;14.00;99.90
26378;DHT22;14078;50.974;6.786;2022-10-26T07:36:18;14.00;99.90
26378;DHT22;14078;50.974;6.786;2022-10-26T07:38:45;13.90;99.90
26378;DHT22;14078;50.974;6.786;2022-10-26T07:41:13;13.80;99.90
26378;DHT22;14078;50.974;6.786;2022-10-26T07:43:39;13.90;99.90
26378;DHT22;14078;50.974;6.786;2022-10-26T07:46:06;13.80;99.90
26378;DHT22;14078;50.974;6.786;2022-10-26T07:48:32;13.80;99.90
26378;DHT22;14078;50.974;6.786;2022-10-26T07:50:59;13.80;99.90
26378;DHT22;14078;50.974;6.786;2022-10-26T07:53:26;13.80;99.90
26378;DHT22;14078;50.974;6.786;2022-10-26T07:55:52;13.80;99.90
26378;DHT22;14078;50.974;6.786;2022-10-26T07:58:21;14.00;99.90
26378;DHT22;14078;50.974;6.786;2022-10-26T08:00:50;13.90;99.90
26378;DHT22;14078;50.974;6.786;2022-10-26T08:03:17;14.10;99.90
26378;DHT22;14078;50.974;6.786;2022-10-26T08:05:44;14.20;99.90
26378;DHT22;14078;50.974;6.786;2022-10-26T08:08:11;14.30;99.90
26378;DHT22;14078;50.974;6.786;2022-10-26T08:10:38;14.30;99.90
26378;DHT22;14078;50.974;6.786;2022-10-26T08:13:07;14.40;99.90
26378;DHT22;14078;50.974;6.786;2022-10-26T08:15:35;14.40;99.90
26378;DHT22;14078;50.974;6.786;2022-10-26T08:18:01;14.50;99.90
26378;DHT22;14078;50.974;6.786;2022-10-26T08:20:28;14.60;99.90
26378;DHT22;14078;50.974;6.786;2022-10-26T08:22:54;14.60;99.90
26378;DHT22;14078;50.974;6.786;2022-10-26T08:25:21;14.70;99.90
26378;DHT22;14078;50.974;6.786;2022-10-26T08:27:47;14.70;99.90
26378;DHT22;14078;50.974;6.786;2022-10-26T08:30:14;14.80;99.90
26378;DHT22;14078;50.974;6.786;2022-10-26T08:32:42;14.90;99.90
26378;DHT22;14078;50.974;6.786;2022-10-26T08:35:09;15.00;99.90
26378;DHT22;14078;50.974;6.786;2022-10-26T08:37:35;15.10;99.90
26378;DHT22;14078;50.974;6.786;2022-10-26T08:40:02;15.10;99.90
26378;DHT22;14078;50.974;6.786;2022-10-26T08:42:29;15.20;99.90
26378;DHT22;14078;50.974;6.786;2022-10-26T08:44:58;15.20;99.90
26378;DHT22;14078;50.974;6.786;2022-10-26T08:47:27;15.20;99.90
26378;DHT22;14078;50.974;6.786;2022-10-26T08:49:57;15.20;99.90
26378;DHT22;14078;50.974;6.786;2022-10-26T08:52:25;15.20;99.90
26378;DHT22;14078;50.974;6.786;2022-10-26T08:54:55;15.10;99.90
26378;DHT22;14078;50.974;6.786;2022-10-26T08:57:24;15.20;99.90
26378;DHT22;14078;50.974;6.786;2022-10-26T08:59:53;15.20;99.90
26378;DHT22;14078;50.974;6.786;2022-10-26T09:02:20;15.20;99.90
26378;DHT22;14078;50.974;6.786;2022-10-26T09:04:48;15.20;99.90
26378;DHT22;14078;50.974;6.786;2022-10-26T09:07:19;15.30;99.90
26378;DHT22;14078;50.974;6.786;2022-10-26T09:09:50;15.30;99.90
26378;DHT22;14078;50.974;6.786;2022-10-26T09:12:19;15.30;99.90
26378;DHT22;14078;50.974;6.786;2022-10-26T09:14:52;15.30;99.90
26378;DHT22;14078;50.974;6.786;2022-10-26T09:17:22;15.40;99.90
26378;DHT22;14078;50.974;6.786;2022-10-26T09:20:03;15.60;99.90
26378;DHT22;14078;50.974;6.786;2022-10-26T09:22:36;15.70;99.90
26378;DHT22;14078;50.974;6.786;2022-10-26T09:25:09;15.70;99.90
26378;DHT22;14078;50.974;6.786;2022-10-26T09:27:39;15.70;99.90
26378;DHT22;14078;50.974;6.786;2022-10-26T09:30:11;15.80;99.90
26378;DHT22;14078;50.974;6.786;2022-10-26T09:32:39;15.80;99.90
26378;DHT22;14078;50.974;6.786;2022-10-26T09:35:09;15.90;99.90
26378;DHT22;14078;50.974;6.786;2022-10-26T09:37:41;15.90;99.90
26378;DHT22;14078;50.974;6.786;2022-10-26T09:40:12;16.00;99.90
26378;DHT22;14078;50.974;6.786;2022-10-26T09:42:42;16.10;99.90
26378;DHT22;14078;50.974;6.786;2022-10-26T09:45:12;16.10;99.90
26378;DHT22;14078;50.974;6.786;2022-10-26T09:47:41;16.20;99.90
26378;DHT22;14078;50.974;6.786;2022-10-26T09:50:15;16.20;99.90
26378;DHT22;14078;50.974;6.786;2022-10-26T09:52:45;16.30;99.90
26378;DHT22;14078;50.974;6.786;2022-10-26T09:55:11;16.40;99.90
26378;DHT22;14078;50.974;6.786;2022-10-26T09:57:38;16.40;99.90
26378;DHT22;14078;50.974;6.786;2022-10-26T10:00:05;16.40;99.90
26378;DHT22;14078;50.974;6.786;2022-10-26T10:02:33;16.50;99.90
26378;DHT22;14078;50.974;6.786;2022-10-26T10:04:59;16.50;99.90
26378;DHT22;14078;50.974;6.786;2022-10-26T10:07:26;16.60;99.90
26378;DHT22;14078;50.974;6.786;2022-10-26T10:10:06;16.60;99.90
26378;DHT22;14078;50.974;6.786;2022-10-26T10:12:33;16.70;99.90
26378;DHT22;14078;50.974;6.786;2022-10-26T10:14:59;16.80;99.90
26378;DHT22;14078;50.974;6.786;2022-10-26T10:17:26;16.80;99.90
26378;DHT22;14078;50.974;6.786;2022-10-26T10:19:52;16.90;99.90
26378;DHT22;14078;50.974;6.786;2022-10-26T10:22:20;17.00;99.90
26378;DHT22;14078;50.974;6.786;2022-10-26T10:24:52;17.00;99.90
26378;DHT22;14078;50.974;6.786;2022-10-26T10:27:20;17.00;99.90
26378;DHT22;14078;50.974;6.786;2022-10-26T10:29:48;17.40;99.90
26378;DHT22;14078;50.974;6.786;2022-10-26T10:32:15;17.30;99.90
26378;DHT22;14078;50.974;6.786;2022-10-26T10:34:42;17.40;99.90
26378;DHT22;14078;50.974;6.786;2022-10-26T10:37:12;17.60;99.90
26378;DHT22;14078;50.974;6.786;2022-10-26T10:39:47;17.80;99.90
26378;DHT22;14078;50.974;6.786;2022-10-26T10:42:15;17.90;99.90
26378;DHT22;14078;50.974;6.786;2022-10-26T10:44:44;18.00;99.90
26378;DHT22;14078;50.974;6.786;2022-10-26T10:47:19;18.40;97.20
26378;DHT22;14078;50.974;6.786;2022-10-26T10:49:50;18.70;85.30
26378;DHT22;14078;50.974;6.786;2022-10-26T10:52:21;18.90;78.60
26378;DHT22;14078;50.974;6.786;2022-10-26T10:54:48;18.70;88.70
26378;DHT22;14078;50.974;6.786;2022-10-26T10:57:17;18.90;93.30
26378;DHT22;14078;50.974;6.786;2022-10-26T10:59:50;18.70;94.00
26378;DHT22;14078;50.974;6.786;2022-10-26T11:02:33;18.90;92.50
26378;DHT22;14078;50.974;6.786;2022-10-26T11:05:06;19.10;82.10
26378;DHT22;14078;50.974;6.786;2022-10-26T11:07:43;19.20;17.70
26378;DHT22;14078;50.974;6.786;2022-10-26T11:10:12;19.20;1.00
26378;DHT22;14078;50.974;6.786;2022-10-26T11:12:40;19.30;1.00
26378;DHT22;14078;50.974;6.786;2022-10-26T11:15:11;19.50;1.00
26378;DHT22;14078;50.974;6.786;2022-10-26T11:17:46;19.60;1.00
26378;DHT22;14078;50.974;6.786;2022-10-26T11:20:16;19.60;1.00
26378;DHT22;14078;50.974;6.786;2022-10-26T11:22:55;19.70;1.00
26378;DHT22;14078;50.974;6.786;2022-10-26T11:25:26;19.80;1.00
26378;DHT22;14078;50.974;6.786;2022-10-26T11:27:53;19.70;1.00
26378;DHT22;14078;50.974;6.786;2022-10-26T11:30:23;19.80;1.00
26378;DHT22;14078;50.974;6.786;2022-10-26T11:32:51;19.80;1.00
26378;DHT22;14078;50.974;6.786;2022-10-26T11:35:20;19.90;99.90
26378;DHT22;14078;50.974;6.786;2022-10-26T11:37:51;20.00;99.90
26378;DHT22;14078;50.974;6.786;2022-10-26T11:40:21;19.90;99.90
26378;DHT22;14078;50.974;6.786;2022-10-26T11:42:51;20.00;99.90
26378;DHT22;14078;50.974;6.786;2022-10-26T11:45:23;20.00;99.90
26378;DHT22;14078;50.974;6.786;2022-10-26T11:47:51;19.90;99.90
26378;DHT22;14078;50.974;6.786;2022-10-26T11:50:20;20.00;99.90
26378;DHT22;14078;50.974;6.786;2022-10-26T11:52:48;20.20;99.90
26378;DHT22;14078;50.974;6.786;2022-10-26T11:55:16;20.00;99.90
26378;DHT22;14078;50.974;6.786;2022-10-26T11:57:43;20.30;99.90
26378;DHT22;14078;50.974;6.786;2022-10-26T12:00:13;20.40;1.00
26378;DHT22;14078;50.974;6.786;2022-10-26T12:02:42;20.40;99.90
26378;DHT22;14078;50.974;6.786;2022-10-26T12:05:16;20.30;99.90
26378;DHT22;14078;50.974;6.786;2022-10-26T12:07:45;20.20;7.40
26378;DHT22;14078;50.974;6.786;2022-10-26T12:10:18;20.40;99.90
26378;DHT22;14078;50.974;6.786;2022-10-26T12:12:47;20.50;1.00
26378;DHT22;14078;50.974;6.786;2022-10-26T12:15:17;20.70;1.00
26378;DHT22;14078;50.974;6.786;2022-10-26T12:17:49;20.70;1.00
26378;DHT22;14078;50.974;6.786;2022-10-26T12:20:24;20.60;1.00
26378;DHT22;14078;50.974;6.786;2022-10-26T12:23:02;20.70;99.90
26378;DHT22;14078;50.974;6.786;2022-10-26T12:25:28;20.70;99.90
26378;DHT22;14078;50.974;6.786;2022-10-26T12:27:55;20.60;99.90
26378;DHT22;14078;50.974;6.786;2022-10-26T12:30:24;20.70;99.90
26378;DHT22;14078;50.974;6.786;2022-10-26T12:32:53;20.60;1.00
26378;DHT22;14078;50.974;6.786;2022-10-26T12:35:28;20.80;1.00
26378;DHT22;14078;50.974;6.786;2022-10-26T12:37:55;20.80;99.90
26378;DHT22;14078;50.974;6.786;2022-10-26T12:40:37;20.80;99.90
26378;DHT22;14078;50.974;6.786;2022-10-26T12:48:39;20.70;13.90
26378;DHT22;14078;50.974;6.786;2022-10-26T12:53:49;20.80;1.00
26378;DHT22;14078;50.974;6.786;2022-10-26T12:56:17;20.70;99.90
26378;DHT22;14078;50.974;6.786;2022-10-26T12:59:02;20.70;1.00
26378;DHT22;14078;50.974;6.786;2022-10-26T13:07:19;20.90;32.70
26378;DHT22;14078;50.974;6.786;2022-10-26T13:09:53;20.70;99.90
26378;DHT22;14078;50.974;6.786;2022-10-26T13:12:20;20.80;99.90
26378;DHT22;14078;50.974;6.786;2022-10-26T13:14:53;20.90;99.90
26378;DHT22;14078;50.974;6.786;2022-10-26T13:17:22;20.70;1.00
26378;DHT22;14078;50.974;6.786;2022-10-26T13:19:49;21.00;99.90
26378;DHT22;14078;50.974;6.786;2022-10-26T13:22:21;21.10;99.90
26378;DHT22;14078;50.974;6.786;2022-10-26T13:24:50;20.90;1.00
26378;DHT22;14078;50.974;6.786;2022-10-26T13:27:22;21.00;99.90
26378;DHT22;14078;50.974;6.786;2022-10-26T13:32:32;21.10;99.90
26378;DHT22;14078;50.974;6.786;2022-10-26T13:34:59;21.10;95.20
26378;DHT22;14078;50.974;6.786;2022-10-26T13:37:29;20.90;99.90
26378;DHT22;14078;50.974;6.786;2022-10-26T13:39:56;21.10;99.90
26378;DHT22;14078;50.974;6.786;2022-10-26T13:42:25;21.00;90.90
26378;DHT22;14078;50.974;6.786;2022-10-26T13:44:52;21.10;33.20
26378;DHT22;14078;50.974;6.786;2022-10-26T13:47:21;20.90;88.80
26378;DHT22;14078;50.974;6.786;2022-10-26T13:49:49;20.90;99.90
26378;DHT22;14078;50.974;6.786;2022-10-26T13:52:18;21.00;62.00
26378;DHT22;14078;50.974;6.786;2022-10-26T13:54:50;20.90;99.90
26378;DHT22;14078;50.974;6.786;2022-10-26T13:57:19;20.90;99.90
26378;DHT22;14078;50.974;6.786;2022-10-26T13:59:47;20.90;99.90
26378;DHT22;14078;50.974;6.786;2022-10-26T14:02:15;21.00;99.90
26378;DHT22;14078;50.974;6.786;2022-10-26T14:04:43;21.00;99.90
26378;DHT22;14078;50.974;6.786;2022-10-26T14:07:12;21.10;99.90
26378;DHT22;14078;50.974;6.786;2022-10-26T14:09:41;21.10;99.90
26378;DHT22;14078;50.974;6.786;2022-10-26T14:12:09;21.00;99.90
26378;DHT22;14078;50.974;6.786;2022-10-26T14:14:36;21.10;99.90
26378;DHT22;14078;50.974;6.786;2022-10-26T14:17:03;21.20;22.10
26378;DHT22;14078;50.974;6.786;2022-10-26T14:19:30;21.20;18.80
26378;DHT22;14078;50.974;6.786;2022-10-26T14:21:57;21.10;96.20
26378;DHT22;14078;50.974;6.786;2022-10-26T14:24:26;20.90;99.90
26378;DHT22;14078;50.974;6.786;2022-10-26T14:26:53;20.80;99.90
26378;DHT22;14078;50.974;6.786;2022-10-26T14:29:21;20.60;99.90
26378;DHT22;14078;50.974;6.786;2022-10-26T14:31:48;20.60;99.90
26378;DHT22;14078;50.974;6.786;2022-10-26T14:34:15;20.70;99.90
26378;DHT22;14078;50.974;6.786;2022-10-26T14:36:43;20.90;61.40
26378;DHT22;14078;50.974;6.786;2022-10-26T14:39:13;20.80;99.90
26378;DHT22;14078;50.974;6.786;2022-10-26T14:41:42;20.70;58.60
26378;DHT22;14078;50.974;6.786;2022-10-26T14:44:12;20.90;34.70
26378;DHT22;14078;50.974;6.786;2022-10-26T14:46:42;20.80;94.50
26378;DHT22;14078;50.974;6.786;2022-10-26T14:49:12;20.70;99.90
26378;DHT22;14078;50.974;6.786;2022-10-26T14:51:42;20.60;99.90
26378;DHT22;14078;50.974;6.786;2022-10-26T14:54:16;20.60;99.90
26378;DHT22;14078;50.974;6.786;2022-10-26T14:56:44;20.50;99.90
26378;DHT22;14078;50.974;6.786;2022-10-26T14:59:11;20.50;99.90
26378;DHT22;14078;50.974;6.786;2022-10-26T15:01:49;20.60;96.10
26378;DHT22;14078;50.974;6.786;2022-10-26T15:07:07;20.40;99.90
26378;DHT22;14078;50.974;6.786;2022-10-26T15:09:37;20.40;99.90
26378;DHT22;14078;50.974;6.786;2022-10-26T15:12:05;20.30;99.90
26378;DHT22;14078;50.974;6.786;2022-10-26T15:14:33;20.20;99.90
26378;DHT22;14078;50.974;6.786;2022-10-26T15:17:02;20.00;99.90
26378;DHT22;14078;50.974;6.786;2022-10-26T15:19:28;19.90;1.00
26378;DHT22;14078;50.974;6.786;2022-10-26T15:21:55;19.80;1.00
26378;DHT22;14078;50.974;6.786;2022-10-26T15:24:32;19.80;1.00
26378;DHT22;14078;50.974;6.786;2022-10-26T15:27:00;19.80;1.00
26378;DHT22;14078;50.974;6.786;2022-10-26T15:29:34;19.80;99.90
26378;DHT22;14078;50.974;6.786;2022-10-26T15:32:02;19.80;99.90
26378;DHT22;14078;50.974;6.786;2022-10-26T15:34:29;19.70;1.00
26378;DHT22;14078;50.974;6.786;2022-10-26T15:36:56;19.80;99.90
26378;DHT22;14078;50.974;6.786;2022-10-26T15:39:24;19.70;99.90
26378;DHT22;14078;50.974;6.786;2022-10-26T15:41:50;19.60;99.90
26378;DHT22;14078;50.974;6.786;2022-10-26T15:44:18;19.50;1.00
26378;DHT22;14078;50.974;6.786;2022-10-26T15:46:45;19.50;99.90
26378;DHT22;14078;50.974;6.786;2022-10-26T15:49:16;19.40;99.90
26378;DHT22;14078;50.974;6.786;2022-10-26T15:51:44;19.30;1.00
26378;DHT22;14078;50.974;6.786;2022-10-26T15:54:11;19.20;1.00
26378;DHT22;14078;50.974;6.786;2022-10-26T15:56:38;19.20;1.00
26378;DHT22;14078;50.974;6.786;2022-10-26T15:59:04;19.00;99.90
26378;DHT22;14078;50.974;6.786;2022-10-26T16:01:34;18.90;1.00